Time;durP1;ratioP1;P1;durP2;ratioP2;P2;SDS_P1;SDS_P2;PMS_P1;PMS_P2;Temp;Humidity;BMP_temperature;BMP_pressure;BME280_temperature;BME280_humidity;BME280_pressure;Samples;Min_cycle;Max_cycle;Signal;HPM_P1;HPM_P2
2021/06/26 00:00:50;;;;;;;19.13;12.75;;;;;;;;;;5015686;28;20077;-81
2021/06/26 00:03:17;;;;;;;15.25;10.70;;;;;;;;;;5009579;28;20045;-81
2021/06/26 00:05:44;;;;;;;20.70;14.70;;;;;;;;;;4998974;28;20084;-82
2021/06/26 00:08:13;;;;;;;17.80;12.75;;;;;;;;;;4915692;28;20394;-81
2021/06/26 00:10:38;;;;;;;;;;;;;;;;;;4890495;28;126146;-81
2021/06/26 00:13:04;;;;;;;21.88;18.52;;;;;;;;;;4983272;28;19924;-81
2021/06/26 00:15:31;;;;;;;21.13;15.57;;;;;;;;;;5002240;28;20041;-81
2021/06/26 00:17:57;;;;;;;17.58;14.38;;;;;;;;;;5021298;28;20525;-81
2021/06/26 00:20:23;;;;;;;22.83;16.30;;;;;;;;;;5002339;28;20033;-81
2021/06/26 00:22:49;;;;;;;23.55;14.40;;;;;;;;;;4973730;28;113674;-80
2021/06/26 00:25:15;;;;;;;15.15;11.50;;;;;;;;;;5013730;28;20096;-81
2021/06/26 00:27:41;;;;;;;18.02;14.07;;;;;;;;;;5034854;28;20044;-81
2021/06/26 00:30:08;;;;;;;21.00;13.15;;;;;;;;;;5029525;28;20053;-78
2021/06/26 00:32:34;;;;;;;21.02;14.48;;;;;;;;;;4998277;28;113034;-80
2021/06/26 00:37:16;;;;;;;12.45;8.50;;;;;;;;;;5046860;27;107227;-78
2021/06/26 00:39:43;;;;;;;13.35;8.60;;;;;;;;;;5031514;28;20041;-79
2021/06/26 00:42:13;;;;;;;16.70;10.45;;;;;;;;;;4907269;28;2865344;-78
2021/06/26 00:44:40;;;;;;;17.23;10.85;;;;;;;;;;5016384;28;20295;-84
2021/06/26 00:47:17;;;;;;;18.80;10.63;;;;;;;;;;5008592;28;20047;-81
2021/06/26 00:49:43;;;;;;;13.20;8.70;;;;;;;;;;5017372;28;20356;-79
2021/06/26 00:52:10;;;;;;;14.82;10.32;;;;;;;;;;5035379;28;20097;-80
2021/06/26 00:54:41;;;;;;;16.17;10.75;;;;;;;;;;5059431;28;20032;-80
2021/06/26 00:57:09;;;;;;;15.57;9.80;;;;;;;;;;4982070;28;20047;-80
2021/06/26 00:59:38;;;;;;;13.73;9.60;;;;;;;;;;5008778;28;20025;-80
2021/06/26 01:02:07;;;;;;;16.58;10.60;;;;;;;;;;5006326;28;20041;-83
2021/06/26 01:04:33;;;;;;;17.23;11.80;;;;;;;;;;4999136;28;20078;-79
2021/06/26 01:07:01;;;;;;;17.88;10.05;;;;;;;;;;5052383;28;20036;-79
2021/06/26 01:09:28;;;;;;;15.57;10.70;;;;;;;;;;5066670;28;20110;-79
2021/06/26 01:11:59;;;;;;;14.73;10.10;;;;;;;;;;4995533;28;20028;-77
2021/06/26 01:14:26;;;;;;;20.17;12.90;;;;;;;;;;5047733;28;20032;-80
2021/06/26 01:16:55;;;;;;;15.65;10.10;;;;;;;;;;5038516;28;20076;-78
2021/06/26 01:19:25;;;;;;;18.70;12.07;;;;;;;;;;5034091;28;20036;-81
2021/06/26 01:21:53;;;;;;;14.05;9.77;;;;;;;;;;5050897;28;20027;-79
2021/06/26 01:24:20;;;;;;;18.23;10.82;;;;;;;;;;5085644;28;20086;-79
2021/06/26 01:26:55;;;;;;;15.60;9.05;;;;;;;;;;5069311;28;20052;-79
2021/06/26 01:29:21;;;;;;;15.13;8.05;;;;;;;;;;5032605;28;20165;-78
2021/06/26 01:31:48;;;;;;;15.70;9.02;;;;;;;;;;5010263;28;20036;-79
2021/06/26 01:34:14;;;;;;;13.73;8.13;;;;;;;;;;5003989;28;20017;-80
2021/06/26 01:36:41;;;;;;;14.68;9.18;;;;;;;;;;5038512;28;20046;-78
2021/06/26 01:39:10;;;;;;;14.75;9.13;;;;;;;;;;4998299;28;20057;-80
2021/06/26 01:41:36;;;;;;;15.73;9.23;;;;;;;;;;5038023;28;20403;-80
2021/06/26 01:44:03;;;;;;;14.70;9.30;;;;;;;;;;5021988;28;20132;-79
2021/06/26 01:46:30;;;;;;;12.98;8.30;;;;;;;;;;5025583;28;20104;-79
2021/06/26 01:49:12;;;;;;;15.00;7.85;;;;;;;;;;5026392;28;20175;-78
2021/06/26 01:51:39;;;;;;;18.30;9.85;;;;;;;;;;5022769;28;20351;-78
2021/06/26 01:54:06;;;;;;;16.65;9.18;;;;;;;;;;5046918;28;20037;-79
2021/06/26 01:56:37;;;;;;;9.82;6.47;;;;;;;;;;5013705;28;20095;-78
2021/06/26 01:59:04;;;;;;;11.82;7.30;;;;;;;;;;5039038;28;20041;-79
2021/06/26 02:01:31;;;;;;;11.05;6.05;;;;;;;;;;5028017;28;20033;-79
2021/06/26 02:03:58;;;;;;;9.23;4.90;;;;;;;;;;5045845;28;20377;-79
2021/06/26 02:06:26;;;;;;;12.00;7.57;;;;;;;;;;5023925;28;20334;-80
2021/06/26 02:08:52;;;;;;;7.78;4.40;;;;;;;;;;5038853;28;20057;-83
2021/06/26 02:11:19;;;;;;;7.15;3.65;;;;;;;;;;5033983;28;20045;-79
2021/06/26 02:13:46;;;;;;;12.23;4.63;;;;;;;;;;5019063;28;20478;-80
2021/06/26 02:16:13;;;;;;;6.55;3.53;;;;;;;;;;5003813;28;20049;-78
2021/06/26 02:18:40;;;;;;;7.15;4.03;;;;;;;;;;4999793;28;20464;-79
2021/06/26 02:21:06;;;;;;;12.45;5.68;;;;;;;;;;5005884;28;20177;-82
2021/06/26 02:23:34;;;;;;;13.90;7.00;;;;;;;;;;5022064;28;20042;-79
2021/06/26 02:26:05;;;;;;;14.63;9.48;;;;;;;;;;5018660;28;20408;-79
2021/06/26 02:28:31;;;;;;;16.77;11.45;;;;;;;;;;5000301;28;20536;-83
2021/06/26 02:30:58;;;;;;;17.20;10.50;;;;;;;;;;5044518;28;20033;-80
2021/06/26 02:33:24;;;;;;;18.10;11.30;;;;;;;;;;5021070;28;20030;-82
2021/06/26 02:35:51;;;;;;;16.45;11.88;;;;;;;;;;5023580;28;20463;-81
2021/06/26 02:38:18;;;;;;;21.23;13.10;;;;;;;;;;5019382;28;20048;-82
2021/06/26 02:40:45;;;;;;;20.50;12.40;;;;;;;;;;5039746;28;20037;-85
2021/06/26 02:43:12;;;;;;;19.13;11.80;;;;;;;;;;5043985;28;20041;-86
2021/06/26 02:45:38;;;;;;;19.13;12.13;;;;;;;;;;5048809;28;20075;-84
2021/06/26 02:48:05;;;;;;;17.02;11.35;;;;;;;;;;5025474;28;20045;-85
2021/06/26 02:50:31;;;;;;;18.33;11.35;;;;;;;;;;5041505;28;20040;-85
2021/06/26 02:52:58;;;;;;;18.90;12.98;;;;;;;;;;5055073;28;20453;-83
2021/06/26 02:55:25;;;;;;;18.60;11.73;;;;;;;;;;5026664;28;20175;-89
2021/06/26 02:57:51;;;;;;;17.58;11.80;;;;;;;;;;5020246;28;20112;-87
2021/06/26 03:00:18;;;;;;;19.30;12.20;;;;;;;;;;5037030;28;20040;-88
2021/06/26 03:02:47;;;;;;;;;;;;;;;;;;5042007;28;25950;-86
2021/06/26 03:05:14;;;;;;;17.35;11.43;;;;;;;;;;5036936;28;20285;-87
2021/06/26 03:07:53;;;;;;;19.45;11.75;;;;;;;;;;5031907;28;20500;-83
2021/06/26 03:10:21;;;;;;;19.85;12.27;;;;;;;;;;5024192;28;21164;-87
2021/06/26 03:12:47;;;;;;;20.00;13.10;;;;;;;;;;5017424;28;20109;-84
2021/06/26 03:15:14;;;;;;;24.70;16.05;;;;;;;;;;5021882;28;20105;-88
2021/06/26 03:17:41;;;;;;;26.88;17.70;;;;;;;;;;5022406;28;20109;-86
2021/06/26 03:20:08;;;;;;;25.25;16.83;;;;;;;;;;5049063;28;20081;-84
2021/06/26 03:22:37;;;;;;;28.13;16.63;;;;;;;;;;5031597;28;20087;-83
2021/06/26 03:25:05;;;;;;;23.75;15.73;;;;;;;;;;5043990;28;20029;-87
2021/06/26 03:27:31;;;;;;;23.80;17.05;;;;;;;;;;5042048;28;20786;-86
2021/06/26 03:29:58;;;;;;;20.02;13.40;;;;;;;;;;5040865;28;20043;-85
2021/06/26 03:32:26;;;;;;;26.08;16.58;;;;;;;;;;4985169;28;20121;-87
2021/06/26 03:34:52;;;;;;;21.98;14.15;;;;;;;;;;5016516;28;20057;-89
2021/06/26 03:37:19;;;;;;;19.35;13.23;;;;;;;;;;5000573;28;20429;-86
2021/06/26 03:39:45;;;;;;;17.90;12.00;;;;;;;;;;5010666;28;20047;-86
2021/06/26 03:42:12;;;;;;;16.80;11.63;;;;;;;;;;5023666;28;20408;-86
2021/06/26 03:44:39;;;;;;;15.98;10.70;;;;;;;;;;5033039;28;20093;-88
2021/06/26 03:47:07;;;;;;;14.57;8.60;;;;;;;;;;5019968;28;20071;-86
2021/06/26 03:49:36;;;;;;;11.23;7.78;;;;;;;;;;5023996;28;20488;-86
2021/06/26 03:52:03;;;;;;;13.93;9.13;;;;;;;;;;5026765;28;20369;-87
2021/06/26 03:54:30;;;;;;;16.05;8.20;;;;;;;;;;5009754;28;20030;-86
2021/06/26 03:56:58;;;;;;;12.10;6.72;;;;;;;;;;5015566;28;20042;-87
2021/06/26 03:59:24;;;;;;;9.57;6.18;;;;;;;;;;5003786;28;21543;-87
2021/06/26 04:01:51;;;;;;;8.70;7.05;;;;;;;;;;5013582;28;20499;-87
2021/06/26 04:04:19;;;;;;;9.60;5.68;;;;;;;;;;5023496;28;20044;-85
2021/06/26 04:06:46;;;;;;;;;;;;;;;;;;5016382;28;20029;-85
2021/06/26 04:09:13;;;;;;;10.90;7.22;;;;;;;;;;5032557;28;19916;-86
2021/06/26 04:11:40;;;;;;;8.68;5.75;;;;;;;;;;5034700;28;20037;-84
2021/06/26 04:14:06;;;;;;;8.52;6.43;;;;;;;;;;5044159;28;20041;-87
2021/06/26 04:16:33;;;;;;;11.98;7.30;;;;;;;;;;4997401;28;20930;-85
2021/06/26 04:19:00;;;;;;;11.38;8.90;;;;;;;;;;4997495;28;20044;-87
2021/06/26 04:21:28;;;;;;;10.40;7.60;;;;;;;;;;5002742;28;20582;-87
2021/06/26 04:23:54;;;;;;;11.60;8.50;;;;;;;;;;5054007;28;20563;-86
2021/06/26 04:26:21;;;;;;;12.20;8.25;;;;;;;;;;5018568;28;20045;-86
2021/06/26 04:28:47;;;;;;;10.82;7.75;;;;;;;;;;5001645;28;20073;-86
2021/06/26 04:31:14;;;;;;;14.52;8.45;;;;;;;;;;5002262;28;20065;-86
2021/06/26 04:33:41;;;;;;;12.13;7.93;;;;;;;;;;5002368;28;20034;-86
2021/06/26 04:36:13;;;;;;;9.93;7.40;;;;;;;;;;5003769;28;20084;-85
2021/06/26 04:38:41;;;;;;;14.02;7.18;;;;;;;;;;5005236;28;20034;-86
2021/06/26 04:41:09;;;;;;;11.13;7.43;;;;;;;;;;5010850;28;20495;-85
2021/06/26 04:43:37;;;;;;;;;;;;;;;;;;5029569;28;20146;-85
2021/06/26 04:46:07;;;;;;;15.27;10.10;;;;;;;;;;5051923;28;19913;-88
2021/06/26 04:48:34;;;;;;;14.15;11.00;;;;;;;;;;5025295;28;20049;-83
2021/06/26 04:51:00;;;;;;;17.40;11.45;;;;;;;;;;5039941;28;20036;-87
2021/06/26 04:53:27;;;;;;;16.33;10.68;;;;;;;;;;5052883;28;22325;-86
2021/06/26 04:55:53;;;;;;;14.43;10.60;;;;;;;;;;5024520;28;20361;-87
2021/06/26 04:58:21;;;;;;;16.02;11.60;;;;;;;;;;5037703;28;20052;-87
2021/06/26 05:00:51;;;;;;;17.85;12.30;;;;;;;;;;5033896;28;20041;-85
2021/06/26 05:03:18;;;;;;;14.93;10.80;;;;;;;;;;5019407;28;20046;-87
2021/06/26 05:05:45;;;;;;;17.42;12.38;;;;;;;;;;5057148;28;20115;-87
2021/06/26 05:08:12;;;;;;;18.13;12.63;;;;;;;;;;5029961;28;20567;-86
2021/06/26 05:10:40;;;;;;;17.17;12.05;;;;;;;;;;5044586;28;20044;-86
2021/06/26 05:13:07;;;;;;;17.67;12.70;;;;;;;;;;5027137;28;20452;-86
2021/06/26 05:15:33;;;;;;;18.90;12.73;;;;;;;;;;5041484;28;20123;-85
2021/06/26 05:18:00;;;;;;;21.58;11.40;;;;;;;;;;5005127;28;20209;-87
2021/06/26 05:20:27;;;;;;;16.55;12.90;;;;;;;;;;5021316;28;20040;-87
2021/06/26 05:22:54;;;;;;;15.43;11.30;;;;;;;;;;5038877;28;20502;-87
2021/06/26 05:25:20;;;;;;;17.58;11.10;;;;;;;;;;5043686;28;20456;-88
2021/06/26 05:27:47;;;;;;;16.17;10.60;;;;;;;;;;5043882;28;20045;-88
2021/06/26 05:30:14;;;;;;;14.15;10.10;;;;;;;;;;5035442;28;20115;-87
2021/06/26 05:32:41;;;;;;;16.40;9.93;;;;;;;;;;5026412;28;20458;-87
2021/06/26 05:35:07;;;;;;;14.93;10.70;;;;;;;;;;5058710;28;20061;-88
2021/06/26 05:37:34;;;;;;;17.50;12.77;;;;;;;;;;5035671;28;20034;-87
2021/06/26 05:40:01;;;;;;;18.65;12.07;;;;;;;;;;5041480;28;20404;-88
2021/06/26 05:42:30;;;;;;;14.85;11.50;;;;;;;;;;5025389;28;20372;-88
2021/06/26 05:45:00;;;;;;;17.10;11.65;;;;;;;;;;5038955;28;20288;-88
2021/06/26 05:47:27;;;;;;;15.48;11.27;;;;;;;;;;5037668;28;20045;-85
2021/06/26 05:49:53;;;;;;;16.52;10.70;;;;;;;;;;5025114;28;20049;-87
2021/06/26 05:52:20;;;;;;;19.70;11.85;;;;;;;;;;5064309;28;20399;-85
2021/06/26 05:54:47;;;;;;;13.05;10.18;;;;;;;;;;5059092;28;20048;-88
2021/06/26 05:57:13;;;;;;;14.63;9.98;;;;;;;;;;5049877;28;20112;-88
2021/06/26 05:59:40;;;;;;;13.82;10.15;;;;;;;;;;5051174;28;20037;-88
2021/06/26 06:02:12;;;;;;;16.05;11.18;;;;;;;;;;5047646;28;20526;-88
2021/06/26 06:04:40;;;;;;;17.52;12.52;;;;;;;;;;5036279;28;20161;-88
2021/06/26 06:07:09;;;;;;;16.38;11.45;;;;;;;;;;5046114;28;20395;-87
2021/06/26 06:09:36;;;;;;;22.75;16.60;;;;;;;;;;5039822;28;20047;-87
2021/06/26 06:12:03;;;;;;;16.98;14.23;;;;;;;;;;5044170;28;20090;-87
2021/06/26 06:14:29;;;;;;;20.50;14.95;;;;;;;;;;5041538;28;20032;-88
2021/06/26 06:16:56;;;;;;;18.05;14.27;;;;;;;;;;5055887;28;20124;-88
2021/06/26 06:19:23;;;;;;;18.02;12.25;;;;;;;;;;5026970;28;20049;-88
2021/06/26 06:21:49;;;;;;;17.83;12.32;;;;;;;;;;5026204;28;20037;-88
2021/06/26 06:24:17;;;;;;;19.25;12.23;;;;;;;;;;5015527;28;20064;-88
2021/06/26 06:26:44;;;;;;;21.90;12.60;;;;;;;;;;5011134;28;20025;-88
2021/06/26 06:29:10;;;;;;;18.50;12.18;;;;;;;;;;5061574;28;20518;-87
2021/06/26 06:31:37;;;;;;;25.33;15.05;;;;;;;;;;5039637;28;20056;-87
2021/06/26 06:34:04;;;;;;;20.90;13.43;;;;;;;;;;5025204;28;20034;-87
2021/06/26 06:36:32;;;;;;;18.42;12.05;;;;;;;;;;5039297;28;20130;-87
2021/06/26 06:38:59;;;;;;;19.83;13.60;;;;;;;;;;5022148;28;20045;-87
2021/06/26 06:41:26;;;;;;;16.65;11.63;;;;;;;;;;5025177;28;20140;-87
2021/06/26 06:43:55;;;;;;;16.98;12.45;;;;;;;;;;5014379;28;20404;-88
2021/06/26 06:46:22;;;;;;;17.83;12.20;;;;;;;;;;5052761;28;20032;-87
2021/06/26 06:48:48;;;;;;;18.60;12.65;;;;;;;;;;5058548;28;20049;-85
2021/06/26 06:51:15;;;;;;;21.52;14.52;;;;;;;;;;5042896;28;20030;-87
2021/06/26 06:53:42;;;;;;;18.60;12.98;;;;;;;;;;5028860;28;20482;-87
2021/06/26 06:56:08;;;;;;;19.20;13.52;;;;;;;;;;5005454;28;20041;-88
2021/06/26 06:58:35;;;;;;;20.77;14.80;;;;;;;;;;5024159;28;20385;-87
2021/06/26 07:01:01;;;;;;;21.08;14.18;;;;;;;;;;5039754;28;20041;-88
2021/06/26 07:03:28;;;;;;;24.65;16.25;;;;;;;;;;5024385;28;20607;-87
2021/06/26 07:05:54;;;;;;;23.88;16.27;;;;;;;;;;5024366;28;20049;-84
2021/06/26 07:08:21;;;;;;;21.75;17.17;;;;;;;;;;5025982;28;20072;-88
2021/06/26 07:10:51;;;;;;;29.23;20.73;;;;;;;;;;5024231;28;20056;-86
2021/06/26 07:13:24;;;;;;;34.35;20.13;;;;;;;;;;5050515;28;20020;-88
2021/06/26 07:15:51;;;;;;;23.35;16.33;;;;;;;;;;5020325;28;20051;-87
2021/06/26 07:18:17;;;;;;;24.10;17.92;;;;;;;;;;5045472;28;20033;-87
2021/06/26 07:20:44;;;;;;;22.27;13.63;;;;;;;;;;5027583;28;20751;-88
2021/06/26 07:23:13;;;;;;;18.63;12.23;;;;;;;;;;5042507;28;20041;-88
2021/06/26 07:25:40;;;;;;;14.13;9.07;;;;;;;;;;5043377;28;20055;-88
2021/06/26 07:28:07;;;;;;;18.70;11.48;;;;;;;;;;5027519;28;20044;-83
2021/06/26 07:30:33;;;;;;;13.65;10.65;;;;;;;;;;5045274;28;20036;-87
2021/06/26 07:33:00;;;;;;;14.57;10.85;;;;;;;;;;5043253;28;20037;-88
2021/06/26 07:35:26;;;;;;;15.00;10.48;;;;;;;;;;5027917;28;20053;-87
2021/06/26 07:37:53;;;;;;;15.70;11.68;;;;;;;;;;5032736;28;20079;-86
2021/06/26 07:40:20;;;;;;;14.05;10.13;;;;;;;;;;5022632;28;20033;-88
2021/06/26 07:42:46;;;;;;;17.27;10.85;;;;;;;;;;5043038;28;20047;-88
2021/06/26 07:45:13;;;;;;;13.15;9.82;;;;;;;;;;5044675;28;20045;-83
2021/06/26 07:47:40;;;;;;;12.52;8.10;;;;;;;;;;5024531;28;20124;-87
2021/06/26 07:50:07;;;;;;;12.15;7.68;;;;;;;;;;5023647;28;20119;-88
2021/06/26 07:52:33;;;;;;;12.75;8.45;;;;;;;;;;5024601;28;20037;-88
2021/06/26 07:55:00;;;;;;;13.85;9.15;;;;;;;;;;5024029;28;20041;-89
2021/06/26 07:57:28;;;;;;;9.35;7.05;;;;;;;;;;5023815;28;20411;-86
2021/06/26 07:59:54;;;;;;;12.82;7.35;;;;;;;;;;5025213;28;20033;-88
2021/06/26 08:02:21;;;;;;;11.05;8.25;;;;;;;;;;5010774;28;20037;-88
2021/06/26 08:04:47;;;;;;;13.73;8.63;;;;;;;;;;5024731;28;20044;-87
2021/06/26 08:07:14;;;;;;;14.32;8.63;;;;;;;;;;5024684;28;20045;-88
2021/06/26 08:09:40;;;;;;;15.45;10.13;;;;;;;;;;5039654;28;20033;-84
2021/06/26 08:12:07;;;;;;;16.92;10.57;;;;;;;;;;5024438;28;20655;-89
2021/06/26 08:14:34;;;;;;;17.10;10.00;;;;;;;;;;5024660;28;20523;-86
2021/06/26 08:17:00;;;;;;;17.00;12.05;;;;;;;;;;5024798;28;20049;-87
2021/06/26 08:19:27;;;;;;;13.95;9.57;;;;;;;;;;5023864;28;20124;-86
2021/06/26 08:21:53;;;;;;;12.25;9.18;;;;;;;;;;5024695;28;20034;-87
2021/06/26 08:24:22;;;;;;;12.95;8.82;;;;;;;;;;5024851;28;20407;-89
2021/06/26 08:26:48;;;;;;;;;;;;;;;;;;5024165;28;20061;-89
2021/06/26 08:29:16;;;;;;;13.68;10.65;;;;;;;;;;5021734;28;19909;-89
2021/06/26 08:31:43;;;;;;;13.70;10.38;;;;;;;;;;5019952;28;20030;-88
2021/06/26 08:34:09;;;;;;;15.70;10.45;;;;;;;;;;5024046;28;20091;-87
2021/06/26 08:36:36;;;;;;;13.30;8.65;;;;;;;;;;5023754;28;20045;-88
2021/06/26 08:39:03;;;;;;;11.18;8.30;;;;;;;;;;5023467;28;20140;-87
2021/06/26 08:41:38;;;;;;;11.23;8.38;;;;;;;;;;5043570;28;20044;-89
2021/06/26 08:44:06;;;;;;;12.15;7.90;;;;;;;;;;5037844;28;20032;-89
2021/06/26 08:46:32;;;;;;;14.07;9.50;;;;;;;;;;5030086;28;20129;-89
2021/06/26 08:48:59;;;;;;;16.58;10.13;;;;;;;;;;5022955;28;20038;-88
2021/06/26 08:51:26;;;;;;;20.45;11.15;;;;;;;;;;5024762;28;20121;-89
2021/06/26 08:53:52;;;;;;;21.80;12.20;;;;;;;;;;5023183;28;20057;-88
2021/06/26 08:56:19;;;;;;;18.80;12.40;;;;;;;;;;5024572;28;20653;-88
2021/06/26 08:58:45;;;;;;;17.25;12.77;;;;;;;;;;5028028;28;20483;-88
2021/06/26 09:01:12;;;;;;;19.95;13.80;;;;;;;;;;5027027;28;20385;-88
2021/06/26 09:03:38;;;;;;;21.35;13.65;;;;;;;;;;5027380;28;20541;-84
2021/06/26 09:06:07;;;;;;;20.25;11.52;;;;;;;;;;5028193;28;20115;-88
2021/06/26 09:08:33;;;;;;;17.05;10.40;;;;;;;;;;5027595;28;20026;-88
2021/06/26 09:11:00;;;;;;;18.92;12.27;;;;;;;;;;5026577;28;20408;-88
2021/06/26 09:13:35;;;;;;;18.42;11.77;;;;;;;;;;5026352;28;20244;-86
2021/06/26 09:16:01;;;;;;;;;;;;;;;;;;5027374;28;20323;-88
2021/06/26 09:18:42;;;;;;;18.10;10.73;;;;;;;;;;5026519;28;19909;-88
2021/06/26 09:21:34;;;;;;;18.85;11.00;;;;;;;;;;5027439;28;20059;-86
2021/06/26 09:24:05;;;;;;;14.93;10.45;;;;;;;;;;5026561;28;20399;-89
2021/06/26 09:26:40;;;;;;;15.73;9.52;;;;;;;;;;5025982;28;20129;-87
2021/06/26 09:29:17;;;;;;;13.40;9.68;;;;;;;;;;5042614;28;20063;-88
2021/06/26 09:31:57;;;;;;;13.65;9.90;;;;;;;;;;5046308;28;20640;-88
2021/06/26 09:34:35;;;;;;;13.32;9.20;;;;;;;;;;5042237;28;20130;-88
2021/06/26 09:37:03;;;;;;;13.63;9.05;;;;;;;;;;5041210;28;20796;-88
2021/06/26 09:39:29;;;;;;;;;;;;;;;;;;5027881;28;20108;-88
2021/06/26 09:41:56;;;;;;;13.55;8.20;;;;;;;;;;5026734;28;19920;-89
2021/06/26 09:44:22;;;;;;;14.95;9.27;;;;;;;;;;5042090;28;20049;-89
2021/06/26 09:46:50;;;;;;;12.88;7.70;;;;;;;;;;5027653;28;20030;-90
2021/06/26 09:49:30;;;;;;;11.75;8.27;;;;;;;;;;5026981;28;20104;-90
2021/06/26 09:51:57;;;;;;;14.70;8.57;;;;;;;;;;5039131;28;20044;-88
2021/06/26 09:54:26;;;;;;;12.88;7.45;;;;;;;;;;5040635;28;20048;-91
2021/06/26 09:56:53;;;;;;;10.80;7.50;;;;;;;;;;5027433;28;20045;-90
2021/06/26 09:59:28;;;;;;;11.55;9.00;;;;;;;;;;5025526;28;20040;-92
2021/06/26 10:01:55;;;;;;;12.32;7.75;;;;;;;;;;5043566;28;20116;-89
2021/06/26 10:04:21;;;;;;;11.05;8.38;;;;;;;;;;5062471;28;20053;-84
2021/06/26 10:06:49;;;;;;;14.68;7.93;;;;;;;;;;5047684;28;20071;-91
2021/06/26 10:09:16;;;;;;;17.80;10.05;;;;;;;;;;5042829;28;20044;-90
2021/06/26 10:11:42;;;;;;;17.33;11.30;;;;;;;;;;5027232;28;20480;-89
2021/06/26 10:14:10;;;;;;;16.20;12.30;;;;;;;;;;5026104;28;20037;-90
2021/06/26 10:16:38;;;;;;;17.13;11.68;;;;;;;;;;5026041;28;20095;-91
2021/06/26 10:19:06;;;;;;;14.40;12.25;;;;;;;;;;5042063;28;20469;-90
2021/06/26 10:21:34;;;;;;;12.85;9.63;;;;;;;;;;5032197;28;21177;-86
2021/06/26 10:24:02;;;;;;;16.70;10.35;;;;;;;;;;5039431;28;20041;-91
2021/06/26 10:26:34;;;;;;;23.63;14.38;;;;;;;;;;5046320;28;20045;-89
2021/06/26 10:29:00;;;;;;;27.73;18.20;;;;;;;;;;5026291;28;20124;-89
2021/06/26 10:31:40;;;;;;;20.65;14.30;;;;;;;;;;5041022;28;20041;-83
2021/06/26 10:34:08;;;;;;;21.38;14.02;;;;;;;;;;5025290;28;20401;-87
2021/06/26 10:36:35;;;;;;;17.38;12.40;;;;;;;;;;5025185;28;20046;-90
2021/06/26 10:39:04;;;;;;;17.75;12.80;;;;;;;;;;5025907;28;20034;-88
2021/06/26 10:41:31;;;;;;;22.25;17.10;;;;;;;;;;5025366;28;20447;-88
2021/06/26 10:43:59;;;;;;;23.45;17.60;;;;;;;;;;5038403;28;20124;-85
2021/06/26 10:46:26;;;;;;;23.88;16.90;;;;;;;;;;5025939;28;20030;-88
2021/06/26 10:49:03;;;;;;;28.75;19.05;;;;;;;;;;5025827;28;20475;-89
2021/06/26 10:51:31;;;;;;;21.02;14.13;;;;;;;;;;5024285;28;20182;-88
2021/06/26 10:54:07;;;;;;;19.80;14.57;;;;;;;;;;5025223;28;20047;-90
2021/06/26 10:56:34;;;;;;;18.15;13.18;;;;;;;;;;5024339;28;20162;-88
2021/06/26 10:59:08;;;;;;;18.45;13.48;;;;;;;;;;5024170;28;20041;-81
2021/06/26 11:01:34;;;;;;;20.27;14.00;;;;;;;;;;5025406;28;20041;-82
2021/06/26 11:04:09;;;;;;;16.30;11.30;;;;;;;;;;5025953;28;20407;-85
2021/06/26 11:06:36;;;;;;;16.38;11.13;;;;;;;;;;5024532;28;20630;-84
2021/06/26 11:09:04;;;;;;;32.30;20.50;;;;;;;;;;5024868;28;20123;-84
2021/06/26 11:11:32;;;;;;;30.70;20.35;;;;;;;;;;5025794;28;20506;-84
2021/06/26 11:14:21;;;;;;;36.10;22.45;;;;;;;;;;5005903;28;20040;-94
2021/06/26 11:16:52;;;;;;;21.80;15.32;;;;;;;;;;5005161;28;20167;-86
2021/06/26 11:19:19;;;;;;;22.33;15.65;;;;;;;;;;5005908;28;20129;-90
2021/06/26 11:21:55;;;;;;;22.60;16.83;;;;;;;;;;5005308;28;20517;-87
2021/06/26 11:24:41;;;;;;;20.77;14.40;;;;;;;;;;5016035;28;20093;-86
2021/06/26 11:27:12;;;;;;;18.35;13.10;;;;;;;;;;5016679;28;20057;-91
2021/06/26 11:29:43;;;;;;;20.25;13.35;;;;;;;;;;5014609;28;20670;-82
2021/06/26 11:32:20;;;;;;;34.67;23.63;;;;;;;;;;5024389;28;21322;-83
2021/06/26 11:34:57;;;;;;;31.95;20.02;;;;;;;;;;5035293;28;21604;-79
2021/06/26 11:37:40;;;;;;;25.17;16.70;;;;;;;;;;5013835;28;20710;-80
2021/06/26 11:40:13;;;;;;;20.85;14.75;;;;;;;;;;5028721;28;20641;-79
2021/06/26 11:42:44;;;;;;;20.13;14.50;;;;;;;;;;5006033;28;20107;-81
2021/06/26 11:45:15;;;;;;;20.85;15.13;;;;;;;;;;5001334;28;20049;-80
2021/06/26 11:47:43;;;;;;;20.95;15.55;;;;;;;;;;5048550;28;20063;-80
2021/06/26 11:50:17;;;;;;;27.60;17.55;;;;;;;;;;5058055;28;20448;-80
2021/06/26 11:52:43;;;;;;;32.55;22.42;;;;;;;;;;5019379;28;20510;-80
2021/06/26 11:55:10;;;;;;;31.17;22.85;;;;;;;;;;5036053;28;20036;-79
2021/06/26 11:57:37;;;;;;;38.35;24.92;;;;;;;;;;5025460;28;20139;-79
2021/06/26 12:00:05;;;;;;;21.58;17.67;;;;;;;;;;5008011;28;20098;-77
2021/06/26 12:02:34;;;;;;;24.05;17.35;;;;;;;;;;5009641;28;20420;-79
2021/06/26 12:05:03;;;;;;;25.55;17.10;;;;;;;;;;5050696;28;20052;-79
2021/06/26 12:07:34;;;;;;;22.95;17.48;;;;;;;;;;5017899;28;20094;-80
2021/06/26 12:10:01;;;;;;;21.85;16.77;;;;;;;;;;5020138;28;20119;-80
2021/06/26 12:12:33;;;;;;;28.05;20.92;;;;;;;;;;5009620;28;20576;-77
2021/06/26 12:14:59;;;;;;;36.05;25.02;;;;;;;;;;5028858;28;20096;-80
2021/06/26 12:17:26;;;;;;;34.33;24.85;;;;;;;;;;5010997;28;20049;-77
2021/06/26 12:19:59;;;;;;;26.60;20.42;;;;;;;;;;4992915;28;20033;-84
2021/06/26 12:22:30;;;;;;;32.30;20.83;;;;;;;;;;5038671;28;20915;-82
2021/06/26 12:25:05;;;;;;;27.88;19.13;;;;;;;;;;5025940;28;20028;-79
2021/06/26 12:27:33;;;;;;;22.33;17.27;;;;;;;;;;5001299;28;20183;-82
2021/06/26 12:30:01;;;;;;;25.92;19.02;;;;;;;;;;5021736;28;20029;-81
2021/06/26 12:32:30;;;;;;;22.10;16.67;;;;;;;;;;5004410;28;20614;-80
2021/06/26 12:34:57;;;;;;;31.55;21.95;;;;;;;;;;4992165;28;20033;-82
2021/06/26 12:37:27;;;;;;;22.05;17.88;;;;;;;;;;5024323;28;26622;-82
2021/06/26 12:40:11;;;;;;;22.98;17.40;;;;;;;;;;4998409;28;20111;-81
2021/06/26 12:42:53;;;;;;;19.73;16.02;;;;;;;;;;5018691;28;20690;-78
2021/06/26 12:45:26;;;;;;;20.17;17.13;;;;;;;;;;5005561;28;21080;-80
2021/06/26 12:48:05;;;;;;;20.63;17.17;;;;;;;;;;5001655;28;20123;-77
2021/06/26 12:50:34;;;;;;;21.92;17.77;;;;;;;;;;5026595;28;20034;-81
2021/06/26 12:53:09;;;;;;;22.65;18.08;;;;;;;;;;5025774;28;20756;-79
2021/06/26 12:55:36;;;;;;;21.13;18.17;;;;;;;;;;5022578;28;20632;-79
2021/06/26 12:58:07;;;;;;;32.20;22.52;;;;;;;;;;5022101;28;20045;-79
2021/06/26 13:00:33;;;;;;;26.45;20.75;;;;;;;;;;5033215;28;20126;-78
2021/06/26 13:03:00;;;;;;;33.17;24.52;;;;;;;;;;5015165;28;20069;-81
2021/06/26 13:05:26;;;;;;;36.13;28.65;;;;;;;;;;5014445;28;20051;-84
2021/06/26 13:08:07;;;;;;;50.58;34.45;;;;;;;;;;5044255;28;20041;-83
2021/06/26 13:10:46;;;;;;;30.65;24.45;;;;;;;;;;5019325;28;20426;-82
2021/06/26 13:13:14;;;;;;;30.42;23.38;;;;;;;;;;5017998;28;20203;-79
2021/06/26 13:15:41;;;;;;;25.23;21.40;;;;;;;;;;5018835;28;20063;-80
2021/06/26 13:18:09;;;;;;;24.48;20.27;;;;;;;;;;5000127;28;20401;-81
2021/06/26 13:20:38;;;;;;;27.23;22.77;;;;;;;;;;5018310;28;20606;-83
2021/06/26 13:23:08;;;;;;;35.92;27.05;;;;;;;;;;5038712;28;20041;-81
2021/06/26 13:25:39;;;;;;;26.52;22.48;;;;;;;;;;5013323;28;20041;-84
2021/06/26 13:28:07;;;;;;;31.80;25.83;;;;;;;;;;5032807;28;20079;-81
2021/06/26 13:30:48;;;;;;;29.92;25.52;;;;;;;;;;5038778;28;20040;-81
2021/06/26 13:33:36;;;;;;;28.80;23.05;;;;;;;;;;4983385;28;20419;-83
2021/06/26 13:36:11;;;;;;;34.13;25.42;;;;;;;;;;5024386;28;22355;-82
2021/06/26 13:38:42;;;;;;;34.80;25.58;;;;;;;;;;5046314;28;20029;-83
2021/06/26 13:41:11;;;;;;;22.58;19.45;;;;;;;;;;4991484;28;20045;-84
2021/06/26 13:43:44;;;;;;;25.90;21.25;;;;;;;;;;5006604;28;20171;-83
2021/06/26 13:46:16;;;;;;;18.02;15.43;;;;;;;;;;5039623;28;20155;-82
2021/06/26 13:48:47;;;;;;;22.13;16.20;;;;;;;;;;5020172;28;20040;-84
2021/06/26 13:51:22;;;;;;;17.30;13.13;;;;;;;;;;5007352;28;20789;-81
2021/06/26 13:53:51;;;;;;;20.90;17.20;;;;;;;;;;5027988;28;20362;-83
2021/06/26 13:56:20;;;;;;;18.60;16.33;;;;;;;;;;5040876;28;20051;-81
2021/06/26 13:58:52;;;;;;;14.95;12.30;;;;;;;;;;4991899;28;20058;-81
2021/06/26 14:01:22;;;;;;;20.27;15.43;;;;;;;;;;5041142;28;20080;-83
2021/06/26 14:03:53;;;;;;;14.43;12.48;;;;;;;;;;5046763;28;20057;-84
2021/06/26 14:06:29;;;;;;;21.20;15.90;;;;;;;;;;4995702;28;21309;-84
2021/06/26 14:09:19;;;;;;;25.25;19.00;;;;;;;;;;4974192;28;20415;-86
2021/06/26 14:12:06;;;;;;;19.85;16.08;;;;;;;;;;4967721;28;20044;-83
2021/06/26 14:14:35;;;;;;;15.27;11.85;;;;;;;;;;4958098;28;20037;-82
2021/06/26 14:17:03;;;;;;;16.40;13.05;;;;;;;;;;4944011;28;20948;-85
2021/06/26 14:19:33;;;;;;;12.45;9.38;;;;;;;;;;4969271;28;20348;-83
2021/06/26 14:22:05;;;;;;;11.20;7.53;;;;;;;;;;4990351;28;20049;-83
2021/06/26 14:24:36;;;;;;;9.25;7.70;;;;;;;;;;4973216;28;20525;-84
2021/06/26 14:27:05;;;;;;;7.70;6.10;;;;;;;;;;4973487;28;21605;-82
2021/06/26 14:29:36;;;;;;;8.52;6.90;;;;;;;;;;4986733;28;20424;-90
2021/06/26 14:32:05;;;;;;;8.75;6.55;;;;;;;;;;4998973;28;20519;-82
2021/06/26 14:34:34;;;;;;;7.53;6.03;;;;;;;;;;4963008;28;20069;-85